Calgary, Canada
Current Conditions -  °F | °C
As of 1:00 AM on Saturday 25 Oct 2014 (Local Time) from CYYC Reporting Station
Broken Clouds Broken Clouds  
Wind Chill: 36°   Ceiling: 21000
Heat Index: 36°   Visibility: 15mi
Dew Point: 18°   Wind: 3mph
Humidity: 48%   Direction: 180°S
Pressure: 30.04"   Gusts: NA
Location:  51.05°N, 114.06°W
Report Text: CYYC 250700Z 18003KT 15SM BKN210 02/M08 A3004 RMK CI6 SLP201
Loading
Personal Weather Stations






























Interactive Weather Map New forecast layout! Learn more

10-Day Weather Forecast

Advertisements
Track Severe Weather on mobile